sensor_id;sensor_type;location;lat;lon;timestamp;P1;durP1;ratioP1;P2;durP2;ratioP2
26080;SDS011;13991;51.174;4.438;2023-03-07T00:01:51;10.63;;;4.00;;
26080;SDS011;13991;51.174;4.438;2023-03-07T00:04:16;11.20;;;4.53;;
26080;SDS011;13991;51.174;4.438;2023-03-07T00:06:42;12.70;;;4.60;;
26080;SDS011;13991;51.174;4.438;2023-03-07T00:09:08;14.37;;;4.87;;
26080;SDS011;13991;51.174;4.438;2023-03-07T00:11:33;15.00;;;4.80;;
26080;SDS011;13991;51.174;4.438;2023-03-07T00:13:59;10.87;;;4.57;;
26080;SDS011;13991;51.174;4.438;2023-03-07T00:16:25;12.17;;;5.07;;
26080;SDS011;13991;51.174;4.438;2023-03-07T00:18:51;9.83;;;4.00;;
26080;SDS011;13991;51.174;4.438;2023-03-07T00:21:17;12.20;;;4.80;;
26080;SDS011;13991;51.174;4.438;2023-03-07T00:23:45;14.93;;;5.60;;
26080;SDS011;13991;51.174;4.438;2023-03-07T00:26:12;11.23;;;4.40;;
26080;SDS011;13991;51.174;4.438;2023-03-07T00:28:44;10.47;;;4.40;;
26080;SDS011;13991;51.174;4.438;2023-03-07T00:31:11;11.80;;;4.13;;
26080;SDS011;13991;51.174;4.438;2023-03-07T00:33:38;10.70;;;4.83;;
26080;SDS011;13991;51.174;4.438;2023-03-07T00:36:05;9.80;;;4.10;;
26080;SDS011;13991;51.174;4.438;2023-03-07T00:38:33;16.60;;;4.60;;
26080;SDS011;13991;51.174;4.438;2023-03-07T00:41:01;10.20;;;4.13;;
26080;SDS011;13991;51.174;4.438;2023-03-07T00:43:34;16.93;;;4.10;;
26080;SDS011;13991;51.174;4.438;2023-03-07T00:46:00;10.87;;;4.00;;
26080;SDS011;13991;51.174;4.438;2023-03-07T00:48:27;12.83;;;3.60;;
26080;SDS011;13991;51.174;4.438;2023-03-07T00:50:53;11.27;;;3.87;;
26080;SDS011;13991;51.174;4.438;2023-03-07T00:53:19;9.27;;;3.70;;
26080;SDS011;13991;51.174;4.438;2023-03-07T00:55:58;13.70;;;4.13;;
26080;SDS011;13991;51.174;4.438;2023-03-07T00:58:30;14.10;;;3.30;;
26080;SDS011;13991;51.174;4.438;2023-03-07T01:00:58;12.40;;;3.77;;
26080;SDS011;13991;51.174;4.438;2023-03-07T01:03:25;8.43;;;4.10;;
26080;SDS011;13991;51.174;4.438;2023-03-07T01:05:51;13.30;;;3.40;;
26080;SDS011;13991;51.174;4.438;2023-03-07T01:08:18;11.37;;;4.10;;
26080;SDS011;13991;51.174;4.438;2023-03-07T01:10:45;12.70;;;3.63;;
26080;SDS011;13991;51.174;4.438;2023-03-07T01:13:12;8.80;;;3.63;;
26080;SDS011;13991;51.174;4.438;2023-03-07T01:15:38;18.90;;;4.57;;
26080;SDS011;13991;51.174;4.438;2023-03-07T01:18:05;12.93;;;3.80;;
26080;SDS011;13991;51.174;4.438;2023-03-07T01:20:32;9.43;;;4.27;;
26080;SDS011;13991;51.174;4.438;2023-03-07T01:22:59;18.47;;;4.30;;
26080;SDS011;13991;51.174;4.438;2023-03-07T01:25:25;14.33;;;5.20;;
26080;SDS011;13991;51.174;4.438;2023-03-07T01:27:51;11.93;;;4.43;;
26080;SDS011;13991;51.174;4.438;2023-03-07T01:30:19;12.97;;;4.37;;
26080;SDS011;13991;51.174;4.438;2023-03-07T01:32:45;9.83;;;4.03;;
26080;SDS011;13991;51.174;4.438;2023-03-07T01:35:12;14.13;;;4.53;;
26080;SDS011;13991;51.174;4.438;2023-03-07T01:37:39;12.97;;;4.93;;
26080;SDS011;13991;51.174;4.438;2023-03-07T01:40:04;12.30;;;4.27;;
26080;SDS011;13991;51.174;4.438;2023-03-07T01:42:31;14.97;;;5.37;;
26080;SDS011;13991;51.174;4.438;2023-03-07T01:45:01;9.87;;;4.30;;
26080;SDS011;13991;51.174;4.438;2023-03-07T01:47:46;13.23;;;4.60;;
26080;SDS011;13991;51.174;4.438;2023-03-07T01:50:13;10.57;;;4.57;;
26080;SDS011;13991;51.174;4.438;2023-03-07T01:52:42;11.67;;;5.07;;
26080;SDS011;13991;51.174;4.438;2023-03-07T01:55:13;14.80;;;4.77;;
26080;SDS011;13991;51.174;4.438;2023-03-07T01:57:42;19.00;;;4.93;;
26080;SDS011;13991;51.174;4.438;2023-03-07T02:00:12;11.40;;;4.43;;
26080;SDS011;13991;51.174;4.438;2023-03-07T02:02:47;15.83;;;5.03;;
26080;SDS011;13991;51.174;4.438;2023-03-07T02:05:20;13.90;;;4.80;;
26080;SDS011;13991;51.174;4.438;2023-03-07T02:07:49;12.90;;;5.00;;
26080;SDS011;13991;51.174;4.438;2023-03-07T02:10:18;12.57;;;4.80;;
26080;SDS011;13991;51.174;4.438;2023-03-07T02:12:46;17.83;;;5.47;;
26080;SDS011;13991;51.174;4.438;2023-03-07T02:15:13;15.70;;;5.80;;
26080;SDS011;13991;51.174;4.438;2023-03-07T02:17:39;13.40;;;5.70;;
26080;SDS011;13991;51.174;4.438;2023-03-07T02:22:36;16.17;;;6.40;;
26080;SDS011;13991;51.174;4.438;2023-03-07T02:25:06;13.37;;;5.33;;
26080;SDS011;13991;51.174;4.438;2023-03-07T02:27:43;18.90;;;6.37;;
26080;SDS011;13991;51.174;4.438;2023-03-07T02:30:10;10.03;;;4.77;;
26080;SDS011;13991;51.174;4.438;2023-03-07T02:32:36;21.73;;;5.33;;
26080;SDS011;13991;51.174;4.438;2023-03-07T02:35:01;15.43;;;5.07;;
26080;SDS011;13991;51.174;4.438;2023-03-07T02:37:34;10.73;;;5.50;;
26080;SDS011;13991;51.174;4.438;2023-03-07T02:40:05;12.77;;;4.83;;
26080;SDS011;13991;51.174;4.438;2023-03-07T02:42:34;14.07;;;4.93;;
26080;SDS011;13991;51.174;4.438;2023-03-07T02:45:05;15.43;;;5.63;;
26080;SDS011;13991;51.174;4.438;2023-03-07T02:47:34;12.60;;;5.77;;
26080;SDS011;13991;51.174;4.438;2023-03-07T02:49:59;15.63;;;6.03;;
26080;SDS011;13991;51.174;4.438;2023-03-07T02:52:25;18.00;;;5.97;;
26080;SDS011;13991;51.174;4.438;2023-03-07T02:54:54;15.20;;;5.07;;
26080;SDS011;13991;51.174;4.438;2023-03-07T02:57:20;9.73;;;5.10;;
26080;SDS011;13991;51.174;4.438;2023-03-07T02:59:46;15.07;;;5.83;;
26080;SDS011;13991;51.174;4.438;2023-03-07T03:02:11;13.30;;;6.57;;
26080;SDS011;13991;51.174;4.438;2023-03-07T03:04:37;16.53;;;6.53;;
26080;SDS011;13991;51.174;4.438;2023-03-07T03:07:03;18.63;;;6.33;;
26080;SDS011;13991;51.174;4.438;2023-03-07T03:09:28;13.43;;;6.33;;
26080;SDS011;13991;51.174;4.438;2023-03-07T03:11:55;17.73;;;6.63;;
26080;SDS011;13991;51.174;4.438;2023-03-07T03:14:21;14.40;;;6.17;;
26080;SDS011;13991;51.174;4.438;2023-03-07T03:16:47;18.13;;;6.83;;
26080;SDS011;13991;51.174;4.438;2023-03-07T03:19:13;20.60;;;6.67;;
26080;SDS011;13991;51.174;4.438;2023-03-07T03:21:39;22.00;;;7.10;;
26080;SDS011;13991;51.174;4.438;2023-03-07T03:24:06;16.87;;;7.20;;
26080;SDS011;13991;51.174;4.438;2023-03-07T03:26:33;18.07;;;7.20;;
26080;SDS011;13991;51.174;4.438;2023-03-07T03:29:00;19.40;;;7.47;;
26080;SDS011;13991;51.174;4.438;2023-03-07T03:31:26;23.40;;;7.03;;
26080;SDS011;13991;51.174;4.438;2023-03-07T03:33:54;23.17;;;8.60;;
26080;SDS011;13991;51.174;4.438;2023-03-07T03:36:20;16.00;;;8.00;;
26080;SDS011;13991;51.174;4.438;2023-03-07T03:38:50;21.40;;;8.63;;
26080;SDS011;13991;51.174;4.438;2023-03-07T03:41:17;18.60;;;7.63;;
26080;SDS011;13991;51.174;4.438;2023-03-07T03:43:42;14.07;;;6.70;;
26080;SDS011;13991;51.174;4.438;2023-03-07T03:46:08;17.63;;;7.73;;
26080;SDS011;13991;51.174;4.438;2023-03-07T03:48:34;16.87;;;7.57;;
26080;SDS011;13991;51.174;4.438;2023-03-07T03:51:04;19.10;;;8.37;;
26080;SDS011;13991;51.174;4.438;2023-03-07T03:53:32;24.67;;;8.50;;
26080;SDS011;13991;51.174;4.438;2023-03-07T03:56:00;17.50;;;7.90;;
26080;SDS011;13991;51.174;4.438;2023-03-07T03:58:32;18.00;;;8.40;;
26080;SDS011;13991;51.174;4.438;2023-03-07T04:01:02;24.17;;;10.10;;
26080;SDS011;13991;51.174;4.438;2023-03-07T04:03:40;24.80;;;10.13;;
26080;SDS011;13991;51.174;4.438;2023-03-07T04:06:09;30.73;;;8.90;;
26080;SDS011;13991;51.174;4.438;2023-03-07T04:08:36;18.97;;;10.17;;
26080;SDS011;13991;51.174;4.438;2023-03-07T04:11:03;29.27;;;10.27;;
26080;SDS011;13991;51.174;4.438;2023-03-07T04:13:30;26.13;;;10.17;;
26080;SDS011;13991;51.174;4.438;2023-03-07T04:15:57;20.23;;;9.83;;
26080;SDS011;13991;51.174;4.438;2023-03-07T04:18:23;27.77;;;10.43;;
26080;SDS011;13991;51.174;4.438;2023-03-07T04:20:49;21.60;;;10.30;;
26080;SDS011;13991;51.174;4.438;2023-03-07T04:23:16;23.77;;;11.07;;
26080;SDS011;13991;51.174;4.438;2023-03-07T04:25:53;22.50;;;10.57;;
26080;SDS011;13991;51.174;4.438;2023-03-07T04:28:21;24.13;;;10.80;;
26080;SDS011;13991;51.174;4.438;2023-03-07T04:30:47;28.23;;;11.37;;
26080;SDS011;13991;51.174;4.438;2023-03-07T04:33:14;21.80;;;10.23;;
26080;SDS011;13991;51.174;4.438;2023-03-07T04:35:40;23.87;;;10.97;;
26080;SDS011;13991;51.174;4.438;2023-03-07T04:38:06;24.40;;;10.43;;
26080;SDS011;13991;51.174;4.438;2023-03-07T04:40:32;30.40;;;10.93;;
26080;SDS011;13991;51.174;4.438;2023-03-07T04:42:58;24.40;;;9.67;;
26080;SDS011;13991;51.174;4.438;2023-03-07T04:45:24;25.33;;;11.10;;
26080;SDS011;13991;51.174;4.438;2023-03-07T04:47:50;21.97;;;10.20;;
26080;SDS011;13991;51.174;4.438;2023-03-07T04:50:16;22.80;;;9.60;;
26080;SDS011;13991;51.174;4.438;2023-03-07T04:52:43;25.33;;;10.23;;
26080;SDS011;13991;51.174;4.438;2023-03-07T04:55:10;22.00;;;10.43;;
26080;SDS011;13991;51.174;4.438;2023-03-07T04:57:36;23.47;;;9.90;;
26080;SDS011;13991;51.174;4.438;2023-03-07T05:00:02;23.23;;;9.83;;
26080;SDS011;13991;51.174;4.438;2023-03-07T05:02:33;22.50;;;10.47;;
26080;SDS011;13991;51.174;4.438;2023-03-07T05:04:59;19.27;;;10.37;;
26080;SDS011;13991;51.174;4.438;2023-03-07T05:07:25;23.77;;;9.77;;
26080;SDS011;13991;51.174;4.438;2023-03-07T05:09:51;27.77;;;10.10;;
26080;SDS011;13991;51.174;4.438;2023-03-07T05:12:17;24.90;;;11.00;;
26080;SDS011;13991;51.174;4.438;2023-03-07T05:14:42;26.10;;;10.50;;
26080;SDS011;13991;51.174;4.438;2023-03-07T05:17:08;18.57;;;9.50;;
26080;SDS011;13991;51.174;4.438;2023-03-07T05:19:34;22.40;;;11.30;;
26080;SDS011;13991;51.174;4.438;2023-03-07T05:21:59;34.00;;;10.97;;
26080;SDS011;13991;51.174;4.438;2023-03-07T05:24:26;24.07;;;11.13;;
26080;SDS011;13991;51.174;4.438;2023-03-07T05:26:52;23.13;;;10.47;;
26080;SDS011;13991;51.174;4.438;2023-03-07T05:29:18;32.33;;;12.03;;
26080;SDS011;13991;51.174;4.438;2023-03-07T05:31:43;26.53;;;10.73;;
26080;SDS011;13991;51.174;4.438;2023-03-07T05:34:09;24.20;;;11.27;;
26080;SDS011;13991;51.174;4.438;2023-03-07T05:36:35;24.90;;;10.97;;
26080;SDS011;13991;51.174;4.438;2023-03-07T05:39:01;22.47;;;10.80;;
26080;SDS011;13991;51.174;4.438;2023-03-07T05:41:26;26.13;;;10.73;;
26080;SDS011;13991;51.174;4.438;2023-03-07T05:43:52;22.17;;;10.37;;
26080;SDS011;13991;51.174;4.438;2023-03-07T05:46:19;19.13;;;9.20;;
26080;SDS011;13991;51.174;4.438;2023-03-07T05:48:45;23.87;;;10.20;;
26080;SDS011;13991;51.174;4.438;2023-03-07T05:51:11;23.20;;;9.17;;
26080;SDS011;13991;51.174;4.438;2023-03-07T05:53:37;22.73;;;9.97;;
26080;SDS011;13991;51.174;4.438;2023-03-07T05:56:02;22.87;;;9.60;;
26080;SDS011;13991;51.174;4.438;2023-03-07T05:58:28;19.43;;;9.37;;
26080;SDS011;13991;51.174;4.438;2023-03-07T06:00:54;21.33;;;9.13;;
26080;SDS011;13991;51.174;4.438;2023-03-07T06:03:19;19.80;;;9.90;;
26080;SDS011;13991;51.174;4.438;2023-03-07T06:05:47;25.37;;;9.97;;
26080;SDS011;13991;51.174;4.438;2023-03-07T06:08:14;22.20;;;9.70;;
26080;SDS011;13991;51.174;4.438;2023-03-07T06:10:40;20.27;;;9.77;;
26080;SDS011;13991;51.174;4.438;2023-03-07T06:13:11;17.20;;;9.07;;
26080;SDS011;13991;51.174;4.438;2023-03-07T06:15:39;18.03;;;8.20;;
26080;SDS011;13991;51.174;4.438;2023-03-07T06:18:05;19.27;;;9.33;;
26080;SDS011;13991;51.174;4.438;2023-03-07T06:20:31;19.60;;;9.20;;
26080;SDS011;13991;51.174;4.438;2023-03-07T06:22:56;18.37;;;7.87;;
26080;SDS011;13991;51.174;4.438;2023-03-07T06:25:22;18.07;;;8.07;;
26080;SDS011;13991;51.174;4.438;2023-03-07T06:27:48;23.93;;;8.10;;
26080;SDS011;13991;51.174;4.438;2023-03-07T06:30:13;25.83;;;8.67;;
26080;SDS011;13991;51.174;4.438;2023-03-07T06:32:39;16.37;;;7.13;;
26080;SDS011;13991;51.174;4.438;2023-03-07T06:35:05;13.47;;;6.70;;
26080;SDS011;13991;51.174;4.438;2023-03-07T06:37:30;22.27;;;7.27;;
26080;SDS011;13991;51.174;4.438;2023-03-07T06:39:56;16.87;;;6.37;;
26080;SDS011;13991;51.174;4.438;2023-03-07T06:42:22;11.77;;;6.40;;
26080;SDS011;13991;51.174;4.438;2023-03-07T06:44:47;17.13;;;7.37;;
26080;SDS011;13991;51.174;4.438;2023-03-07T06:47:13;16.70;;;6.37;;
26080;SDS011;13991;51.174;4.438;2023-03-07T06:49:39;21.10;;;6.60;;
26080;SDS011;13991;51.174;4.438;2023-03-07T06:52:04;18.90;;;6.57;;
26080;SDS011;13991;51.174;4.438;2023-03-07T06:54:30;22.07;;;7.03;;
26080;SDS011;13991;51.174;4.438;2023-03-07T06:56:56;18.30;;;7.07;;
26080;SDS011;13991;51.174;4.438;2023-03-07T06:59:21;16.47;;;6.27;;
26080;SDS011;13991;51.174;4.438;2023-03-07T07:01:47;19.00;;;7.40;;
26080;SDS011;13991;51.174;4.438;2023-03-07T07:04:13;13.63;;;6.47;;
26080;SDS011;13991;51.174;4.438;2023-03-07T07:06:38;18.70;;;7.23;;
26080;SDS011;13991;51.174;4.438;2023-03-07T07:09:04;24.50;;;6.97;;
26080;SDS011;13991;51.174;4.438;2023-03-07T07:11:30;22.17;;;7.20;;
26080;SDS011;13991;51.174;4.438;2023-03-07T07:13:55;18.67;;;7.80;;
26080;SDS011;13991;51.174;4.438;2023-03-07T07:16:21;19.23;;;7.50;;
26080;SDS011;13991;51.174;4.438;2023-03-07T07:18:50;25.73;;;8.20;;
26080;SDS011;13991;51.174;4.438;2023-03-07T07:21:16;22.97;;;8.13;;
26080;SDS011;13991;51.174;4.438;2023-03-07T07:23:42;23.40;;;7.60;;
26080;SDS011;13991;51.174;4.438;2023-03-07T07:26:07;21.63;;;7.77;;
26080;SDS011;13991;51.174;4.438;2023-03-07T07:28:33;17.83;;;8.23;;
26080;SDS011;13991;51.174;4.438;2023-03-07T07:30:59;20.23;;;7.77;;
26080;SDS011;13991;51.174;4.438;2023-03-07T07:33:28;26.33;;;7.30;;
26080;SDS011;13991;51.174;4.438;2023-03-07T07:35:54;29.93;;;8.40;;
26080;SDS011;13991;51.174;4.438;2023-03-07T07:38:19;16.80;;;7.83;;
26080;SDS011;13991;51.174;4.438;2023-03-07T07:40:45;18.77;;;7.77;;
26080;SDS011;13991;51.174;4.438;2023-03-07T07:43:12;11.40;;;5.83;;
26080;SDS011;13991;51.174;4.438;2023-03-07T07:45:39;13.07;;;5.33;;
26080;SDS011;13991;51.174;4.438;2023-03-07T07:48:05;13.83;;;5.00;;
26080;SDS011;13991;51.174;4.438;2023-03-07T07:50:30;11.73;;;3.63;;
26080;SDS011;13991;51.174;4.438;2023-03-07T07:52:56;5.63;;;2.90;;
26080;SDS011;13991;51.174;4.438;2023-03-07T07:55:22;6.60;;;3.87;;
26080;SDS011;13991;51.174;4.438;2023-03-07T07:57:49;8.67;;;3.83;;
26080;SDS011;13991;51.174;4.438;2023-03-07T08:00:15;11.47;;;4.20;;
26080;SDS011;13991;51.174;4.438;2023-03-07T08:02:45;33.50;;;5.40;;
26080;SDS011;13991;51.174;4.438;2023-03-07T08:05:13;8.60;;;4.90;;
26080;SDS011;13991;51.174;4.438;2023-03-07T08:07:39;14.03;;;6.23;;
26080;SDS011;13991;51.174;4.438;2023-03-07T08:10:05;16.63;;;5.23;;
26080;SDS011;13991;51.174;4.438;2023-03-07T08:12:32;10.00;;;4.33;;
26080;SDS011;13991;51.174;4.438;2023-03-07T08:14:57;19.67;;;4.63;;
26080;SDS011;13991;51.174;4.438;2023-03-07T08:17:23;19.93;;;4.63;;
26080;SDS011;13991;51.174;4.438;2023-03-07T08:19:48;16.80;;;5.37;;
26080;SDS011;13991;51.174;4.438;2023-03-07T08:22:14;25.20;;;5.47;;
26080;SDS011;13991;51.174;4.438;2023-03-07T08:24:40;8.27;;;4.73;;
26080;SDS011;13991;51.174;4.438;2023-03-07T08:27:06;9.83;;;4.77;;
26080;SDS011;13991;51.174;4.438;2023-03-07T08:29:33;12.33;;;5.90;;
26080;SDS011;13991;51.174;4.438;2023-03-07T08:31:59;11.70;;;4.93;;
26080;SDS011;13991;51.174;4.438;2023-03-07T08:34:25;14.23;;;4.83;;
26080;SDS011;13991;51.174;4.438;2023-03-07T08:36:51;18.63;;;5.97;;
26080;SDS011;13991;51.174;4.438;2023-03-07T08:39:17;9.63;;;5.80;;
26080;SDS011;13991;51.174;4.438;2023-03-07T08:41:43;10.20;;;4.63;;
26080;SDS011;13991;51.174;4.438;2023-03-07T08:44:08;10.27;;;5.03;;
26080;SDS011;13991;51.174;4.438;2023-03-07T08:46:34;8.40;;;5.03;;
26080;SDS011;13991;51.174;4.438;2023-03-07T08:49:00;15.60;;;6.10;;
26080;SDS011;13991;51.174;4.438;2023-03-07T08:51:25;9.03;;;5.53;;
26080;SDS011;13991;51.174;4.438;2023-03-07T08:53:51;18.43;;;6.33;;
26080;SDS011;13991;51.174;4.438;2023-03-07T08:56:17;10.83;;;4.67;;
26080;SDS011;13991;51.174;4.438;2023-03-07T08:58:46;13.97;;;5.70;;
26080;SDS011;13991;51.174;4.438;2023-03-07T09:01:11;9.17;;;4.47;;
26080;SDS011;13991;51.174;4.438;2023-03-07T09:03:37;11.07;;;5.13;;
26080;SDS011;13991;51.174;4.438;2023-03-07T09:06:03;7.17;;;3.93;;
26080;SDS011;13991;51.174;4.438;2023-03-07T09:08:29;6.50;;;4.30;;
26080;SDS011;13991;51.174;4.438;2023-03-07T09:10:58;9.10;;;4.83;;
26080;SDS011;13991;51.174;4.438;2023-03-07T09:13:25;10.73;;;3.87;;
26080;SDS011;13991;51.174;4.438;2023-03-07T09:15:51;6.83;;;4.20;;
26080;SDS011;13991;51.174;4.438;2023-03-07T09:18:17;11.93;;;5.23;;
26080;SDS011;13991;51.174;4.438;2023-03-07T09:20:42;15.23;;;5.33;;
26080;SDS011;13991;51.174;4.438;2023-03-07T09:23:08;14.07;;;5.30;;
26080;SDS011;13991;51.174;4.438;2023-03-07T09:25:35;9.00;;;5.20;;
26080;SDS011;13991;51.174;4.438;2023-03-07T09:28:04;11.90;;;6.80;;
26080;SDS011;13991;51.174;4.438;2023-03-07T09:30:30;9.30;;;5.73;;
26080;SDS011;13991;51.174;4.438;2023-03-07T09:32:55;10.27;;;5.10;;
26080;SDS011;13991;51.174;4.438;2023-03-07T09:35:23;8.03;;;4.93;;
26080;SDS011;13991;51.174;4.438;2023-03-07T09:37:49;8.10;;;5.17;;
26080;SDS011;13991;51.174;4.438;2023-03-07T09:40:29;6.13;;;4.40;;
26080;SDS011;13991;51.174;4.438;2023-03-07T09:48:46;4.93;;;3.67;;
26080;SDS011;13991;51.174;4.438;2023-03-07T09:51:21;6.13;;;3.93;;
26080;SDS011;13991;51.174;4.438;2023-03-07T09:53:59;4.47;;;3.00;;
26080;SDS011;13991;51.174;4.438;2023-03-07T09:56:30;6.03;;;4.20;;
26080;SDS011;13991;51.174;4.438;2023-03-07T09:59:27;6.27;;;3.80;;
26080;SDS011;13991;51.174;4.438;2023-03-07T10:02:03;6.07;;;4.00;;
26080;SDS011;13991;51.174;4.438;2023-03-07T10:04:45;8.73;;;3.97;;
26080;SDS011;13991;51.174;4.438;2023-03-07T10:07:22;6.13;;;4.10;;
26080;SDS011;13991;51.174;4.438;2023-03-07T10:09:52;4.87;;;3.40;;
26080;SDS011;13991;51.174;4.438;2023-03-07T10:12:35;4.63;;;2.90;;
26080;SDS011;13991;51.174;4.438;2023-03-07T10:16:04;2.90;;;2.17;;
26080;SDS011;13991;51.174;4.438;2023-03-07T10:18:58;5.03;;;2.43;;
26080;SDS011;13991;51.174;4.438;2023-03-07T10:27:10;1.57;;;1.43;;
26080;SDS011;13991;51.174;4.438;2023-03-07T10:29:46;7.50;;;2.23;;
26080;SDS011;13991;51.174;4.438;2023-03-07T10:32:29;5.97;;;2.83;;
26080;SDS011;13991;51.174;4.438;2023-03-07T10:34:57;4.77;;;2.60;;
26080;SDS011;13991;51.174;4.438;2023-03-07T10:43:32;4.07;;;3.00;;
26080;SDS011;13991;51.174;4.438;2023-03-07T10:45:58;6.27;;;3.33;;
26080;SDS011;13991;51.174;4.438;2023-03-07T10:48:50;7.20;;;3.23;;
26080;SDS011;13991;51.174;4.438;2023-03-07T10:53:59;6.23;;;2.60;;
26080;SDS011;13991;51.174;4.438;2023-03-07T10:56:26;3.60;;;2.63;;
26080;SDS011;13991;51.174;4.438;2023-03-07T10:59:08;4.13;;;2.10;;
26080;SDS011;13991;51.174;4.438;2023-03-07T11:01:35;17.33;;;3.60;;
26080;SDS011;13991;51.174;4.438;2023-03-07T11:04:21;3.13;;;1.50;;
26080;SDS011;13991;51.174;4.438;2023-03-07T11:06:58;17.07;;;2.07;;
26080;SDS011;13991;51.174;4.438;2023-03-07T11:14:29;1.60;;;1.50;;
26080;SDS011;13991;51.174;4.438;2023-03-07T11:16:59;1.73;;;1.47;;
26080;SDS011;13991;51.174;4.438;2023-03-07T11:19:41;2.77;;;1.60;;
26080;SDS011;13991;51.174;4.438;2023-03-07T11:24:49;1.60;;;1.47;;
26080;SDS011;13991;51.174;4.438;2023-03-07T11:27:33;2.13;;;1.83;;
26080;SDS011;13991;51.174;4.438;2023-03-07T11:32:55;2.23;;;1.30;;
26080;SDS011;13991;51.174;4.438;2023-03-07T11:38:35;1.40;;;1.13;;
26080;SDS011;13991;51.174;4.438;2023-03-07T12:09:09;6.37;;;3.33;;
26080;SDS011;13991;51.174;4.438;2023-03-07T12:12:23;4.70;;;3.07;;
26080;SDS011;13991;51.174;4.438;2023-03-07T12:23:36;12.83;;;4.67;;
26080;SDS011;13991;51.174;4.438;2023-03-07T12:26:25;10.33;;;6.57;;
26080;SDS011;13991;51.174;4.438;2023-03-07T12:31:46;20.90;;;10.00;;
26080;SDS011;13991;51.174;4.438;2023-03-07T12:34:17;18.10;;;10.60;;
26080;SDS011;13991;51.174;4.438;2023-03-07T12:36:56;18.07;;;11.40;;
26080;SDS011;13991;51.174;4.438;2023-03-07T12:47:22;20.83;;;12.43;;
26080;SDS011;13991;51.174;4.438;2023-03-07T12:50:09;20.93;;;12.97;;
26080;SDS011;13991;51.174;4.438;2023-03-07T13:00:40;40.57;;;20.77;;
26080;SDS011;13991;51.174;4.438;2023-03-07T13:03:14;34.57;;;20.13;;
26080;SDS011;13991;51.174;4.438;2023-03-07T13:06:05;38.73;;;21.13;;
26080;SDS011;13991;51.174;4.438;2023-03-07T13:08:35;37.63;;;21.07;;
26080;SDS011;13991;51.174;4.438;2023-03-07T13:11:03;48.70;;;23.40;;
26080;SDS011;13991;51.174;4.438;2023-03-07T13:16:09;49.93;;;26.90;;
26080;SDS011;13991;51.174;4.438;2023-03-07T13:18:36;55.27;;;27.93;;
26080;SDS011;13991;51.174;4.438;2023-03-07T13:21:45;54.63;;;27.60;;
26080;SDS011;13991;51.174;4.438;2023-03-07T13:24:25;59.27;;;28.03;;
26080;SDS011;13991;51.174;4.438;2023-03-07T13:26:58;49.93;;;25.97;;
26080;SDS011;13991;51.174;4.438;2023-03-07T13:37:53;57.10;;;27.80;;
26080;SDS011;13991;51.174;4.438;2023-03-07T13:48:58;39.40;;;19.53;;
26080;SDS011;13991;51.174;4.438;2023-03-07T13:54:13;39.63;;;18.83;;
26080;SDS011;13991;51.174;4.438;2023-03-07T13:56:25;36.63;;;18.73;;
26080;SDS011;13991;51.174;4.438;2023-03-07T13:58:58;43.07;;;18.53;;
26080;SDS011;13991;51.174;4.438;2023-03-07T14:01:43;29.40;;;11.77;;
26080;SDS011;13991;51.174;4.438;2023-03-07T14:04:15;10.40;;;6.07;;
26080;SDS011;13991;51.174;4.438;2023-03-07T14:06:44;3.63;;;2.67;;
26080;SDS011;13991;51.174;4.438;2023-03-07T14:09:18;5.83;;;3.60;;
26080;SDS011;13991;51.174;4.438;2023-03-07T14:12:07;6.80;;;3.60;;
26080;SDS011;13991;51.174;4.438;2023-03-07T14:14:53;5.63;;;4.27;;
26080;SDS011;13991;51.174;4.438;2023-03-07T14:22:55;7.83;;;4.20;;
26080;SDS011;13991;51.174;4.438;2023-03-07T14:25:57;4.73;;;3.60;;
26080;SDS011;13991;51.174;4.438;2023-03-07T14:28:45;6.80;;;3.50;;
26080;SDS011;13991;51.174;4.438;2023-03-07T14:31:19;7.20;;;4.57;;
26080;SDS011;13991;51.174;4.438;2023-03-07T14:33:53;4.03;;;3.40;;
26080;SDS011;13991;51.174;4.438;2023-03-07T14:36:20;6.30;;;4.60;;
26080;SDS011;13991;51.174;4.438;2023-03-07T14:38:48;6.27;;;4.03;;
26080;SDS011;13991;51.174;4.438;2023-03-07T14:41:34;7.60;;;3.90;;
26080;SDS011;13991;51.174;4.438;2023-03-07T14:47:54;9.50;;;4.20;;
26080;SDS011;13991;51.174;4.438;2023-03-07T14:50:25;6.40;;;5.30;;
26080;SDS011;13991;51.174;4.438;2023-03-07T14:53:15;6.73;;;4.97;;
26080;SDS011;13991;51.174;4.438;2023-03-07T14:55:46;4.87;;;4.17;;
26080;SDS011;13991;51.174;4.438;2023-03-07T14:58:22;5.33;;;3.77;;
26080;SDS011;13991;51.174;4.438;2023-03-07T15:01:04;6.87;;;4.00;;
26080;SDS011;13991;51.174;4.438;2023-03-07T15:03:43;3.20;;;2.43;;
26080;SDS011;13991;51.174;4.438;2023-03-07T15:06:18;4.33;;;1.73;;
26080;SDS011;13991;51.174;4.438;2023-03-07T15:08:46;9.77;;;1.23;;
26080;SDS011;13991;51.174;4.438;2023-03-07T15:13:51;3.80;;;1.10;;
26080;SDS011;13991;51.174;4.438;2023-03-07T15:16:23;3.50;;;1.63;;
26080;SDS011;13991;51.174;4.438;2023-03-07T15:18:53;3.67;;;1.67;;
26080;SDS011;13991;51.174;4.438;2023-03-07T15:21:23;2.67;;;2.10;;
26080;SDS011;13991;51.174;4.438;2023-03-07T15:23:54;2.23;;;2.03;;
26080;SDS011;13991;51.174;4.438;2023-03-07T15:26:22;2.43;;;2.20;;
26080;SDS011;13991;51.174;4.438;2023-03-07T15:28:49;5.13;;;2.70;;
26080;SDS011;13991;51.174;4.438;2023-03-07T15:31:21;6.17;;;2.90;;
26080;SDS011;13991;51.174;4.438;2023-03-07T15:33:47;4.87;;;3.17;;
26080;SDS011;13991;51.174;4.438;2023-03-07T15:38:49;3.73;;;3.40;;
26080;SDS011;13991;51.174;4.438;2023-03-07T15:41:33;8.80;;;4.13;;
26080;SDS011;13991;51.174;4.438;2023-03-07T15:44:04;4.43;;;3.40;;
26080;SDS011;13991;51.174;4.438;2023-03-07T15:46:44;5.07;;;3.60;;
26080;SDS011;13991;51.174;4.438;2023-03-07T15:51:55;4.10;;;3.03;;
26080;SDS011;13991;51.174;4.438;2023-03-07T15:54:30;6.77;;;3.13;;
26080;SDS011;13991;51.174;4.438;2023-03-07T15:57:06;6.57;;;3.27;;
26080;SDS011;13991;51.174;4.438;2023-03-07T15:59:56;3.43;;;3.00;;
26080;SDS011;13991;51.174;4.438;2023-03-07T16:07:52;4.07;;;3.17;;
26080;SDS011;13991;51.174;4.438;2023-03-07T16:10:20;4.83;;;3.30;;
26080;SDS011;13991;51.174;4.438;2023-03-07T16:12:49;6.10;;;2.80;;
26080;SDS011;13991;51.174;4.438;2023-03-07T16:15:18;5.20;;;3.50;;
26080;SDS011;13991;51.174;4.438;2023-03-07T16:17:47;4.37;;;3.03;;
26080;SDS011;13991;51.174;4.438;2023-03-07T16:20:21;4.03;;;2.93;;
26080;SDS011;13991;51.174;4.438;2023-03-07T16:22:49;11.67;;;4.77;;
26080;SDS011;13991;51.174;4.438;2023-03-07T16:25:15;6.23;;;3.87;;
26080;SDS011;13991;51.174;4.438;2023-03-07T16:27:44;7.10;;;4.20;;
26080;SDS011;13991;51.174;4.438;2023-03-07T16:30:15;10.83;;;4.80;;
26080;SDS011;13991;51.174;4.438;2023-03-07T16:32:42;10.40;;;4.67;;
26080;SDS011;13991;51.174;4.438;2023-03-07T16:37:52;8.00;;;5.30;;
26080;SDS011;13991;51.174;4.438;2023-03-07T16:40:19;8.63;;;4.73;;
26080;SDS011;13991;51.174;4.438;2023-03-07T16:42:46;7.87;;;4.50;;
26080;SDS011;13991;51.174;4.438;2023-03-07T16:45:19;7.53;;;4.57;;
26080;SDS011;13991;51.174;4.438;2023-03-07T16:47:45;7.00;;;4.43;;
26080;SDS011;13991;51.174;4.438;2023-03-07T16:50:15;6.50;;;4.20;;
26080;SDS011;13991;51.174;4.438;2023-03-07T16:52:42;6.83;;;4.37;;
26080;SDS011;13991;51.174;4.438;2023-03-07T16:55:12;5.97;;;4.30;;
26080;SDS011;13991;51.174;4.438;2023-03-07T16:57:42;7.97;;;4.20;;
26080;SDS011;13991;51.174;4.438;2023-03-07T17:00:14;6.30;;;3.80;;
26080;SDS011;13991;51.174;4.438;2023-03-07T17:02:45;6.30;;;3.23;;
26080;SDS011;13991;51.174;4.438;2023-03-07T17:05:16;4.87;;;3.47;;
26080;SDS011;13991;51.174;4.438;2023-03-07T17:07:49;7.13;;;4.30;;
26080;SDS011;13991;51.174;4.438;2023-03-07T17:10:15;5.47;;;4.07;;